AirNav   Everest Fuels
 
 385 users online  

VT06 Santa's Airport
Putney, Vermont, USA

GOING TO PUTNEY?


FAA INFORMATION EFFECTIVE 10 SEPTEMBER 2020

Location

FAA Identifier: VT06
Lat/Long: 43-00-16.0000N 072-28-25.3000W
43-00.266667N 072-28.421667W
43.0044444,-72.4736944
(estimated)
Elevation: 673 ft. / 205 m (estimated)
Variation: 15W (1990)
From city: 3 miles N of PUTNEY, VT
Time zone: UTC -4 (UTC -5 during Standard Time)
Zip code: 05346

Airport Operations

Airport use: Private use. Permission required prior to landing
Activation date: 11/1993
Control tower: no
ARTCC: BOSTON CENTER
FSS: BURLINGTON FLIGHT SERVICE STATION
Attendance: 0700-1700
Segmented circle: no

Airport Communications

WX AWOS-3PT at EEN (11 nm SE): 119.025 (603-358-6424)

Nearby radio navigation aids

VOR radial/distance  VOR name  Freq  Var
EENr342/14.9KEENE VORTAC109.4014W
GDMr340/33.0GARDNER VOR/DME110.6014W
CAMr103/38.2CAMBRIDGE VOR/DME115.0014W

 
NDB name  Hdg/Dist  Freq  Var  ID
CLAREMONT208/22.323316WCNH -.-. -. ....

Airport Services

Runway Information

Runway 17/35

Dimensions: 2500 x 50 ft. / 762 x 15 m
Surface: turf
RUNWAY 17  RUNWAY 35
Traffic pattern: leftleft
Obstructions: 40 ft. trees, 120 ft. from runway30 ft. trees, 265 ft. from runway

Airport Ownership and Management from official FAA records

Ownership: Privately-owned
Owner: DAVID N BREWER
601 BELLOWSFALLS RD
PUTNEY, VT 05346
Phone 802-387-5428
802-579-2650 - CELL
Manager: DAVID N BREWER
601 BELLOW FALLS RD.
PUTNEY, VT 05346
Phone 802-387-5428

Airport Operational Statistics

Aircraft based on the field: 2
Single engine airplanes: 2
    

Additional Remarks

FOR CD CTC BOSTON ARTCC AT 603-879-6859.

Instrument Procedures

There are no published instrument procedures at VT06.

Some nearby airports with instrument procedures:

KEEN - Dillant-Hopkins Airport (11 nm SE)
4V8 - Deerfield Valley Regional Airport (18 nm W)
KVSF - Hartness State Airport (Springfield) (20 nm N)
KCNH - Claremont Municipal Airport (22 nm N)
KAFN - Jaffrey Airport-Silver Ranch (24 nm SE)
 
Loc | Ops | Rwys | IFR | FBO | Links
Com | Nav | Svcs | Stats | Notes
Area around VT06 (Santa's Airport)
 
Road maps at: MapQuest Bing Google
 
Aerial photo
No photo
 
Sectional chart

 
Airport distance calculator
Flying to Santa's Airport? Find the distance to fly.

From to VT06

Sunrise and sunset
Times for 18-Sep-2020
 Local
(UTC-4)
 Zulu
(UTC)
Morning civil twilight06:0610:06
Sunrise06:3510:35
Sunset18:5322:53
Evening civil twilight19:2123:21

Current date and time
Zulu (UTC)  18-Sep-2020 08:21:49
Local (UTC-4)  18-Sep-2020 04:21:49
 
METAR
KEEN 
12nm SE 
180756Z AUTO 34008KT 10SM BKN023 OVC033 14/11 A3001 RMK AO2 SLP165 T01390111 PNO $
KVSF 
21nm N 
180754Z AUTO 00000KT 10SM OVC049 12/10 A3003 RMK AO2 SLP172 T01220100
TAF
KRUT 
37nm NW 
180540Z 1806/1906 VRB03KT P6SM BKN008 OVC040 FM180900 VRB06KT P6SM SCT060 FM181400 36007KT P6SM FEW180 FM181700 34010KT P6SM FEW200 FM190200 VRB04KT P6SM SKC
KLEB 
38nm N 
180534Z 1806/1906 VRB03KT P6SM OVC040 FM181500 36009G16KT P6SM BKN040 FM182300 35003KT P6SM SKC
KCON 
44nm E 
180534Z 1806/1906 VRB04KT P6SM -SHRA OVC035 FM181100 35006KT P6SM OVC025 FM181500 34010G17KT P6SM BKN040 FM182300 33005KT P6SM SKC
KMHT 
46nm E 
180534Z 1806/1906 01008KT P6SM OVC035 FM181400 36010G17KT P6SM BKN040 FM182300 34007KT P6SM SKC
NOTAMs
Click for the latest NOTAMs
NOTAMs are issued by the DoD/FAA and will open in a separate window not controlled by AirNav.

 

 
 

Would you like to see your business listed on this page?

 If your business provides an interesting product or service to pilots, flight crews, aircraft, or users of the Santa's Airport, you should consider listing it here.  To start the listing process, click on the button below
 
Add a business
 

Other Pages about Santa's Airport

Update a link
 
Copyright © AirNav, LLC. All rights reserved. Privacy Policy  Contact